createdAt,value
2023-03-31T00:02:13.818Z,98654.53
2023-03-31T00:04:52.665Z,98644.06
2023-03-31T00:07:23.711Z,98643.63
2023-03-31T00:09:50.241Z,98637.16
2023-03-31T00:12:17.135Z,98642.72
2023-03-31T00:14:44.254Z,98625.72
2023-03-31T00:17:11.625Z,98625.75
2023-03-31T00:19:40.200Z,98623.69
2023-03-31T00:22:07.546Z,98630.06
2023-03-31T00:24:34.983Z,98619.72
2023-03-31T00:27:05.567Z,98619.44
2023-03-31T00:29:33.691Z,98614.97
2023-03-31T00:32:00.484Z,98608.31
2023-03-31T00:34:27.931Z,98600.94
2023-03-31T00:36:56.554Z,98587.59
2023-03-31T00:39:29.296Z,98593.38
2023-03-31T00:41:55.822Z,98580.00
2023-03-31T00:44:24.683Z,98569.78
2023-03-31T00:47:13.402Z,98565.03
2023-03-31T00:49:47.431Z,98558.69
2023-03-31T00:52:23.586Z,98553.91
2023-03-31T00:54:57.529Z,98554.56
2023-03-31T00:57:28.722Z,98545.16
2023-03-31T01:00:26.527Z,98539.63
2023-03-31T01:03:00.067Z,98527.22
2023-03-31T01:05:32.751Z,98519.41
2023-03-31T01:08:02.259Z,98514.16
2023-03-31T01:10:33.025Z,98500.94
2023-03-31T01:12:59.573Z,98493.31
2023-03-31T01:15:26.220Z,98480.59
2023-03-31T01:17:55.881Z,98483.13
2023-03-31T01:20:28.296Z,98484.88
2023-03-31T01:23:29.428Z,98483.31
2023-03-31T01:26:23.521Z,98467.06
2023-03-31T01:28:57.234Z,98462.78
2023-03-31T01:31:29.832Z,98455.97
2023-03-31T01:34:36.280Z,98462.00
2023-03-31T01:37:30.237Z,98456.56
2023-03-31T01:40:09.103Z,98441.16
2023-03-31T01:42:59.288Z,98445.44
2023-03-31T01:45:49.231Z,98445.28
2023-03-31T01:48:18.249Z,98427.16
2023-03-31T01:50:58.076Z,98422.41
2023-03-31T01:53:42.989Z,98416.19
2023-03-31T01:56:37.616Z,98397.72
2023-03-31T01:59:20.182Z,98342.06
2023-03-31T02:02:13.924Z,98314.75
2023-03-31T02:04:46.708Z,98318.09
2023-03-31T02:07:19.044Z,98298.81
2023-03-31T02:09:51.966Z,98309.97
2023-03-31T02:12:21.406Z,98306.16
2023-03-31T02:14:52.839Z,98299.81
2023-03-31T02:17:30.433Z,98297.78
2023-03-31T02:20:00.319Z,98298.53
2023-03-31T02:22:33.092Z,98289.97
2023-03-31T02:25:02.032Z,98269.63
2023-03-31T02:27:33.447Z,98235.59
2023-03-31T02:30:00.585Z,98221.59
2023-03-31T02:32:32.472Z,98216.19
2023-03-31T02:34:59.394Z,98194.13
2023-03-31T02:37:26.822Z,98195.84
2023-03-31T02:39:56.613Z,98198.09
2023-03-31T02:42:23.211Z,98206.56
2023-03-31T02:44:49.838Z,98205.75
2023-03-31T02:47:18.824Z,98201.47
2023-03-31T02:49:50.945Z,98200.34
2023-03-31T02:52:32.541Z,98206.59
2023-03-31T02:55:26.077Z,98209.94
2023-03-31T02:58:03.780Z,98225.66
2023-03-31T03:00:38.332Z,98241.41
2023-03-31T03:03:29.819Z,98226.31
2023-03-31T03:06:05.911Z,98228.38
2023-03-31T03:09:04.000Z,98231.56
2023-03-31T03:11:38.002Z,98213.72
2023-03-31T03:14:38.275Z,98210.25
2023-03-31T03:17:14.979Z,98197.41
2023-03-31T03:19:42.831Z,98183.53
2023-03-31T03:22:09.910Z,98165.44
2023-03-31T03:24:36.549Z,98168.13
2023-03-31T03:27:03.217Z,98161.00
2023-03-31T03:29:29.788Z,98152.44
2023-03-31T03:31:56.548Z,98137.78
2023-03-31T03:34:23.128Z,98143.19
2023-03-31T03:36:49.642Z,98147.19
2023-03-31T03:39:16.241Z,98151.13
2023-03-31T03:41:42.773Z,98136.81
2023-03-31T03:44:09.374Z,98112.97
2023-03-31T03:46:35.997Z,98102.47
2023-03-31T03:49:02.647Z,98087.38
2023-03-31T03:51:29.249Z,98098.19
2023-03-31T03:53:55.829Z,98093.91
2023-03-31T03:56:22.440Z,98080.22
2023-03-31T03:58:49.081Z,98095.31
2023-03-31T04:01:16.294Z,98073.38
2023-03-31T04:03:42.798Z,98046.19
2023-03-31T04:06:09.482Z,98047.66
2023-03-31T04:08:37.002Z,98027.16
2023-03-31T04:11:03.733Z,98026.03
2023-03-31T04:13:30.445Z,98007.91
2023-03-31T04:15:56.940Z,98002.03
2023-03-31T04:18:23.561Z,97992.69
2023-03-31T04:21:06.038Z,97983.19
2023-03-31T04:23:46.796Z,97981.16
2023-03-31T04:26:15.056Z,97981.50
2023-03-31T04:28:42.943Z,97980.03
2023-03-31T04:31:10.532Z,97961.56
2023-03-31T04:33:40.200Z,97935.38
2023-03-31T04:36:17.912Z,97951.44
2023-03-31T04:38:54.793Z,97977.34
2023-03-31T04:41:23.000Z,97982.50
2023-03-31T04:43:49.916Z,97971.88
2023-03-31T04:46:17.115Z,97966.50
2023-03-31T04:48:43.753Z,97995.38
2023-03-31T04:51:10.649Z,97988.56
2023-03-31T04:53:37.328Z,97979.91
2023-03-31T04:56:04.307Z,97971.06
2023-03-31T04:58:31.117Z,97948.78
2023-03-31T05:00:57.792Z,97934.41
2023-03-31T05:03:24.548Z,97923.47
2023-03-31T05:05:51.161Z,97915.38
2023-03-31T05:08:17.759Z,97909.06
2023-03-31T05:10:44.436Z,97920.69
2023-03-31T05:13:11.669Z,97909.72
2023-03-31T05:15:39.904Z,97924.41
2023-03-31T05:18:07.726Z,97922.25
2023-03-31T05:20:34.622Z,97922.47
2023-03-31T05:23:01.210Z,97926.66
2023-03-31T05:25:32.750Z,97917.19
2023-03-31T05:28:00.345Z,97912.69
2023-03-31T05:30:27.698Z,97917.44
2023-03-31T05:32:54.475Z,97912.22
2023-03-31T05:35:21.113Z,97915.84
2023-03-31T05:37:47.706Z,97916.72
2023-03-31T05:40:14.440Z,97924.84
2023-03-31T05:42:42.863Z,97904.09
2023-03-31T05:45:09.907Z,97903.31
2023-03-31T05:47:37.035Z,97903.88
2023-03-31T05:50:07.788Z,97892.16
2023-03-31T05:52:35.280Z,97894.41
2023-03-31T05:55:01.970Z,97898.91
2023-03-31T05:57:28.622Z,97893.94
2023-03-31T05:59:55.189Z,97898.81
2023-03-31T06:02:21.870Z,97910.63
2023-03-31T06:04:48.522Z,97904.78
2023-03-31T06:07:17.812Z,97911.31
2023-03-31T06:09:45.677Z,97916.72
2023-03-31T06:12:12.255Z,97919.88
2023-03-31T06:14:38.773Z,97916.59
2023-03-31T06:17:05.411Z,97916.97
2023-03-31T06:19:31.997Z,97912.00
2023-03-31T06:21:58.491Z,97920.13
2023-03-31T06:24:25.400Z,97919.88
2023-03-31T06:26:53.755Z,97910.63
2023-03-31T06:29:20.817Z,97920.00
2023-03-31T06:31:47.566Z,97925.06
2023-03-31T06:34:14.178Z,97916.94
2023-03-31T06:36:41.482Z,97913.13
2023-03-31T06:39:08.033Z,97905.88
2023-03-31T06:41:34.670Z,97913.44
2023-03-31T06:44:01.187Z,97916.06
2023-03-31T06:46:27.739Z,97908.97
2023-03-31T06:48:54.553Z,97900.59
2023-03-31T06:51:21.164Z,97906.81
2023-03-31T06:53:47.749Z,97901.41
2023-03-31T06:56:14.523Z,97900.28
2023-03-31T06:58:41.103Z,97906.13
2023-03-31T07:01:08.246Z,97894.94
2023-03-31T07:03:35.262Z,97901.94
2023-03-31T07:06:01.843Z,97894.94
2023-03-31T07:08:28.607Z,97884.03
2023-03-31T07:10:58.043Z,97893.72
2023-03-31T07:13:25.620Z,97881.75
2023-03-31T07:15:52.778Z,97882.09
2023-03-31T07:18:20.098Z,97888.16
2023-03-31T07:20:53.011Z,97887.22
2023-03-31T07:23:20.938Z,97885.28
2023-03-31T07:25:48.344Z,97883.66
2023-03-31T07:28:15.389Z,97869.50
2023-03-31T07:30:42.274Z,97882.47
2023-03-31T07:33:08.955Z,97875.78
2023-03-31T07:35:39.537Z,97870.59
2023-03-31T07:38:07.728Z,97871.59
2023-03-31T07:40:34.288Z,97857.25
2023-03-31T07:43:01.189Z,97849.13
2023-03-31T07:45:27.791Z,97855.69
2023-03-31T07:47:54.575Z,97845.53
2023-03-31T07:50:21.990Z,97851.44
2023-03-31T07:52:48.597Z,97870.78
2023-03-31T07:55:15.943Z,97855.19
2023-03-31T07:57:43.651Z,97864.13
2023-03-31T08:00:12.709Z,97857.56
2023-03-31T08:02:42.823Z,97845.41
2023-03-31T08:05:12.099Z,97859.25
2023-03-31T08:07:41.854Z,97848.81
2023-03-31T08:10:11.635Z,97854.59
2023-03-31T08:12:38.372Z,97853.19
2023-03-31T08:15:05.907Z,97863.00
2023-03-31T08:17:32.593Z,97855.66
2023-03-31T08:20:02.774Z,97851.25
2023-03-31T08:22:31.814Z,97837.88
2023-03-31T08:24:58.315Z,97855.56
2023-03-31T08:27:26.137Z,97864.63
2023-03-31T08:29:52.871Z,97853.72
2023-03-31T08:32:23.381Z,97849.72
2023-03-31T08:34:49.954Z,97864.69
2023-03-31T08:37:16.525Z,97876.56
2023-03-31T08:39:43.074Z,97861.81
2023-03-31T08:42:16.405Z,97854.09
2023-03-31T08:44:49.845Z,97861.97
2023-03-31T08:47:21.583Z,97863.22
2023-03-31T08:49:53.887Z,97867.56
2023-03-31T08:52:32.953Z,97853.78
2023-03-31T08:55:07.730Z,97867.19
2023-03-31T08:57:54.137Z,97851.59
2023-03-31T09:00:21.598Z,97880.94
2023-03-31T09:03:00.955Z,97861.69
2023-03-31T09:06:01.254Z,97862.63
2023-03-31T09:08:37.534Z,97871.13
2023-03-31T09:11:29.633Z,97848.16
2023-03-31T09:14:14.879Z,97850.63
2023-03-31T09:16:54.820Z,97866.28
2023-03-31T09:19:35.023Z,97846.03
2023-03-31T09:22:04.015Z,97846.75
2023-03-31T09:24:36.120Z,97853.16
2023-03-31T09:27:07.037Z,97843.09
2023-03-31T09:29:45.255Z,97846.59
2023-03-31T09:32:14.745Z,97836.16
2023-03-31T09:34:41.423Z,97835.03
2023-03-31T09:37:10.893Z,97842.91
2023-03-31T09:39:38.792Z,97826.53
2023-03-31T09:42:05.774Z,97838.03
2023-03-31T09:44:39.606Z,97828.75
2023-03-31T09:47:12.087Z,97824.88
2023-03-31T09:49:40.698Z,97824.16
2023-03-31T09:52:30.630Z,97816.34
2023-03-31T09:55:02.220Z,97805.22
2023-03-31T09:57:36.257Z,97828.41
2023-03-31T10:00:14.082Z,97851.47
2023-03-31T10:02:51.502Z,97823.47
2023-03-31T10:05:22.483Z,97814.03
2023-03-31T10:07:49.119Z,97814.97
2023-03-31T10:10:28.937Z,97822.66
2023-03-31T10:12:55.592Z,97807.22
2023-03-31T10:15:26.475Z,97811.34
2023-03-31T10:17:55.494Z,97832.84
2023-03-31T10:20:38.053Z,97812.69
2023-03-31T10:23:34.829Z,97845.78
2023-03-31T10:26:04.825Z,97810.63
2023-03-31T10:28:34.701Z,97812.06
2023-03-31T10:31:03.306Z,97823.53
2023-03-31T10:33:34.882Z,97793.34
2023-03-31T10:36:09.465Z,97806.34
2023-03-31T10:38:45.205Z,97806.78
2023-03-31T10:41:13.479Z,97791.97
2023-03-31T10:43:48.246Z,97804.75
2023-03-31T10:46:14.925Z,97802.66
2023-03-31T10:48:43.840Z,97795.66
2023-03-31T10:51:28.991Z,97786.69
2023-03-31T10:54:01.043Z,97796.53
2023-03-31T10:56:31.826Z,97799.84
2023-03-31T10:59:26.133Z,97816.84
2023-03-31T11:02:00.951Z,97770.78
2023-03-31T11:05:07.320Z,97769.19
2023-03-31T11:07:52.196Z,97798.22
2023-03-31T11:10:33.695Z,97778.34
2023-03-31T11:13:18.521Z,97774.31
2023-03-31T11:15:58.365Z,97770.41
2023-03-31T11:18:46.029Z,97773.03
2023-03-31T11:21:28.002Z,97742.44
2023-03-31T11:24:09.767Z,97756.63
2023-03-31T11:27:14.440Z,97771.16
2023-03-31T11:30:04.459Z,97748.63
2023-03-31T11:32:49.202Z,97764.06
2023-03-31T11:35:45.473Z,97745.63
2023-03-31T11:38:50.841Z,97756.06
2023-03-31T11:41:34.011Z,97758.19
2023-03-31T11:44:05.539Z,97767.25
2023-03-31T11:46:55.134Z,97751.00
2023-03-31T11:49:28.195Z,97755.06
2023-03-31T11:52:05.251Z,97758.66
2023-03-31T11:54:43.598Z,97786.53
2023-03-31T11:57:20.781Z,97755.38
2023-03-31T12:00:00.435Z,97773.84
2023-03-31T12:02:40.883Z,97768.69
2023-03-31T12:05:09.787Z,97757.47
2023-03-31T12:07:41.814Z,97753.41
2023-03-31T12:10:30.019Z,97749.47
2023-03-31T12:13:19.749Z,97714.97
2023-03-31T12:16:04.679Z,97714.28
2023-03-31T12:18:36.848Z,97722.56
2023-03-31T12:21:05.565Z,97706.81
2023-03-31T12:23:38.352Z,97718.44
2023-03-31T12:26:31.722Z,97721.56
2023-03-31T12:29:07.980Z,97716.31
2023-03-31T12:31:38.926Z,97718.09
2023-03-31T12:34:13.006Z,97717.25
2023-03-31T12:37:10.774Z,97701.78
2023-03-31T12:39:37.244Z,97719.56
2023-03-31T12:42:06.410Z,97733.81
2023-03-31T12:44:48.280Z,97698.41
2023-03-31T12:47:52.627Z,97704.03
2023-03-31T12:51:09.813Z,97723.88
2023-03-31T12:54:00.573Z,97717.84
2023-03-31T12:56:27.328Z,97727.28
2023-03-31T12:58:53.873Z,97724.28
2023-03-31T13:04:15.823Z,97679.19
2023-03-31T13:06:43.886Z,97683.78
2023-03-31T13:09:13.234Z,97683.97
2023-03-31T13:11:48.468Z,97684.31
2023-03-31T13:14:21.122Z,97686.16
2023-03-31T13:16:49.849Z,97678.84
2023-03-31T13:19:47.386Z,97667.69
2023-03-31T13:22:48.488Z,97689.03
2023-03-31T13:25:37.434Z,97711.00
2023-03-31T13:28:22.145Z,97668.50
2023-03-31T13:30:54.376Z,97681.78
2023-03-31T13:33:23.919Z,97672.56
2023-03-31T13:35:57.015Z,97672.41
2023-03-31T13:38:36.958Z,97677.00
2023-03-31T13:41:24.420Z,97653.94
2023-03-31T13:44:10.979Z,97678.97
2023-03-31T13:47:15.857Z,97661.72
2023-03-31T13:49:55.964Z,97670.41
2023-03-31T13:52:37.343Z,97666.56
2023-03-31T13:55:22.437Z,97663.38
2023-03-31T13:57:58.167Z,97678.91
2023-03-31T14:00:59.280Z,97666.16
2023-03-31T14:03:44.717Z,97668.69
2023-03-31T14:06:48.715Z,97666.16
2023-03-31T14:09:27.158Z,97686.63
2023-03-31T14:11:53.757Z,97688.13
2023-03-31T14:14:20.822Z,97675.03
2023-03-31T14:17:02.181Z,97671.75
2023-03-31T14:19:48.164Z,97662.75
2023-03-31T14:22:38.907Z,97668.13
2023-03-31T14:25:33.626Z,97661.78
2023-03-31T14:28:21.481Z,97658.75
2023-03-31T14:31:02.851Z,97658.00
2023-03-31T14:33:34.483Z,97660.31
2023-03-31T14:36:39.410Z,97669.53
2023-03-31T14:39:10.859Z,97674.97
2023-03-31T14:41:38.124Z,97669.84
2023-03-31T14:44:07.547Z,97664.69
2023-03-31T14:46:39.058Z,97656.00
2023-03-31T14:49:28.184Z,97650.97
2023-03-31T14:52:00.442Z,97653.63
2023-03-31T14:54:27.097Z,97644.53
2023-03-31T14:56:58.576Z,97640.69
2023-03-31T14:59:29.112Z,97637.38
2023-03-31T15:01:59.272Z,97648.00
2023-03-31T15:04:41.450Z,97637.53
2023-03-31T15:07:09.602Z,97636.03
2023-03-31T15:09:36.573Z,97632.09
2023-03-31T15:12:07.431Z,97632.66
2023-03-31T15:14:37.501Z,97634.75
2023-03-31T15:17:04.230Z,97644.66
2023-03-31T15:19:34.540Z,97638.22
2023-03-31T15:22:19.107Z,97626.63
2023-03-31T15:24:46.618Z,97640.97
2023-03-31T15:30:24.220Z,97622.63
2023-03-31T15:32:51.516Z,97636.28
2023-03-31T15:35:28.738Z,97629.94
2023-03-31T15:37:57.817Z,97620.97
2023-03-31T15:40:39.680Z,97623.13
2023-03-31T15:43:20.264Z,97630.72
2023-03-31T15:45:59.502Z,97608.13
2023-03-31T15:48:33.411Z,97626.84
2023-03-31T15:51:41.333Z,97614.28
2023-03-31T15:54:27.773Z,97636.53
2023-03-31T15:56:59.596Z,97633.66
2023-03-31T15:59:38.067Z,97634.59
2023-03-31T16:02:13.652Z,97640.34
2023-03-31T16:04:40.743Z,97661.19
2023-03-31T16:07:14.929Z,97651.13
2023-03-31T16:09:55.960Z,97638.56
2023-03-31T16:12:40.538Z,97643.63
2023-03-31T16:15:14.155Z,97665.41
2023-03-31T16:17:47.941Z,97650.72
2023-03-31T16:20:27.111Z,97651.97
2023-03-31T16:22:59.339Z,97649.97
2023-03-31T16:25:29.779Z,97638.38
2023-03-31T16:28:01.855Z,97643.88
2023-03-31T16:30:36.056Z,97638.47
2023-03-31T16:33:08.504Z,97655.16
2023-03-31T16:35:41.844Z,97630.84
2023-03-31T16:38:11.113Z,97656.34
2023-03-31T16:40:42.995Z,97653.16
2023-03-31T16:43:23.832Z,97649.06
2023-03-31T16:45:58.420Z,97664.00
2023-03-31T16:48:27.357Z,97640.94
2023-03-31T16:50:57.286Z,97648.25
2023-03-31T16:53:29.103Z,97683.72
2023-03-31T16:55:56.356Z,97705.44
2023-03-31T16:58:28.505Z,97692.69
2023-03-31T17:00:56.088Z,97684.50
2023-03-31T17:03:23.229Z,97692.28
2023-03-31T17:05:53.100Z,97685.19
2023-03-31T17:08:22.118Z,97691.06
2023-03-31T17:10:53.483Z,97682.44
2023-03-31T17:13:20.730Z,97697.16
2023-03-31T17:15:49.451Z,97697.97
2023-03-31T17:18:17.332Z,97708.78
2023-03-31T17:20:44.159Z,97689.41
2023-03-31T17:23:11.348Z,97702.50
2023-03-31T17:25:38.008Z,97694.59
2023-03-31T17:28:05.517Z,97684.47
2023-03-31T17:30:35.383Z,97697.47
2023-03-31T17:33:01.966Z,97704.34
2023-03-31T17:35:28.825Z,97714.28
2023-03-31T17:37:55.610Z,97721.81
2023-03-31T17:40:27.579Z,97730.19
2023-03-31T17:42:54.624Z,97728.03
2023-03-31T17:45:21.712Z,97734.13
2023-03-31T17:47:48.464Z,97727.16
2023-03-31T17:50:15.147Z,97735.94
2023-03-31T17:52:41.704Z,97739.78
2023-03-31T17:55:09.053Z,97733.56
2023-03-31T17:57:37.177Z,97730.75
2023-03-31T18:00:09.747Z,97744.16
2023-03-31T18:02:40.690Z,97740.91
2023-03-31T18:05:08.424Z,97744.59
2023-03-31T18:07:36.483Z,97748.44
2023-03-31T18:10:05.367Z,97747.97
2023-03-31T18:12:36.580Z,97744.84
2023-03-31T18:15:05.926Z,97753.75
2023-03-31T18:17:33.062Z,97749.91
2023-03-31T18:19:59.711Z,97748.78
2023-03-31T18:22:27.304Z,97739.09
2023-03-31T18:24:53.852Z,97744.59
2023-03-31T18:27:22.560Z,97749.69
2023-03-31T18:29:50.417Z,97760.50
2023-03-31T18:32:17.007Z,97746.19
2023-03-31T18:34:43.661Z,97743.81
2023-03-31T18:37:10.482Z,97739.19
2023-03-31T18:39:37.071Z,97738.88
2023-03-31T18:42:04.213Z,97735.72
2023-03-31T18:44:31.479Z,97740.00
2023-03-31T18:46:58.282Z,97744.59
2023-03-31T18:49:25.064Z,97753.06
2023-03-31T18:51:51.872Z,97746.09
2023-03-31T18:54:18.475Z,97757.78
2023-03-31T18:56:45.127Z,97758.69
2023-03-31T18:59:11.768Z,97762.53
2023-03-31T19:01:40.324Z,97750.25
2023-03-31T19:04:09.957Z,97758.00
2023-03-31T19:06:36.520Z,97759.59
2023-03-31T19:09:03.357Z,97756.13
2023-03-31T19:11:30.102Z,97754.09
2023-03-31T19:13:56.857Z,97752.84
2023-03-31T19:16:27.422Z,97767.81
2023-03-31T19:18:54.416Z,97769.97
2023-03-31T19:21:21.367Z,97768.72
2023-03-31T19:23:48.365Z,97794.38
2023-03-31T19:26:16.618Z,97783.13
2023-03-31T19:28:43.196Z,97784.56
2023-03-31T19:31:11.223Z,97785.69
2023-03-31T19:33:37.749Z,97782.31
2023-03-31T19:36:04.761Z,97791.09
2023-03-31T19:38:32.797Z,97791.09
2023-03-31T19:41:00.181Z,97792.22
2023-03-31T19:43:27.678Z,97793.34
2023-03-31T19:45:57.569Z,97794.03
2023-03-31T19:48:26.514Z,97798.31
2023-03-31T19:50:59.839Z,97799.44
2023-03-31T19:53:27.189Z,97788.63
2023-03-31T19:55:56.940Z,97815.66
2023-03-31T19:58:23.972Z,97808.00
2023-03-31T20:00:52.516Z,97799.44
2023-03-31T20:03:19.670Z,97796.72
2023-03-31T20:05:46.854Z,97800.88
2023-03-31T20:08:14.039Z,97796.50
2023-03-31T20:10:41.469Z,97799.06
2023-03-31T20:13:08.973Z,97804.34
2023-03-31T20:15:36.863Z,97802.78
2023-03-31T20:18:04.715Z,97808.03
2023-03-31T20:20:31.378Z,97814.91
2023-03-31T20:22:59.790Z,97811.75
2023-03-31T20:25:27.118Z,97816.81
2023-03-31T20:27:53.787Z,97814.91
2023-03-31T20:30:20.613Z,97813.34
2023-03-31T20:32:47.561Z,97825.72
2023-03-31T20:35:14.273Z,97815.69
2023-03-31T20:37:40.766Z,97823.34
2023-03-31T20:40:07.948Z,97814.00
2023-03-31T20:42:35.902Z,97818.47
2023-03-31T20:45:03.181Z,97808.66
2023-03-31T20:47:29.849Z,97816.31
2023-03-31T20:49:56.473Z,97820.44
2023-03-31T20:52:23.908Z,97810.63
2023-03-31T20:54:51.120Z,97826.38
2023-03-31T20:57:17.927Z,97806.91
2023-03-31T20:59:44.588Z,97821.41
2023-03-31T21:02:13.116Z,97819.03
2023-03-31T21:04:39.664Z,97814.28
2023-03-31T21:07:06.281Z,97818.09
2023-03-31T21:09:33.058Z,97822.72
2023-03-31T21:12:00.916Z,97815.88
2023-03-31T21:14:27.639Z,97822.84
2023-03-31T21:16:54.538Z,97830.47
2023-03-31T21:19:21.196Z,97823.50
2023-03-31T21:21:47.712Z,97838.13
2023-03-31T21:24:15.118Z,97828.00
2023-03-31T21:26:41.767Z,97834.97
2023-03-31T21:29:08.407Z,97826.06
2023-03-31T21:31:35.318Z,97834.16
2023-03-31T21:34:02.724Z,97837.34
2023-03-31T21:36:29.606Z,97833.38
2023-03-31T21:38:56.713Z,97829.56
2023-03-31T21:41:29.787Z,97843.38
2023-03-31T21:43:59.717Z,97833.38
2023-03-31T21:46:30.527Z,97834.50
2023-03-31T21:48:57.625Z,97844.84
2023-03-31T21:51:25.161Z,97832.03
2023-03-31T21:53:55.340Z,97845.50
2023-03-31T21:56:24.392Z,97830.91
2023-03-31T21:58:51.165Z,97837.88
2023-03-31T22:01:18.891Z,97850.25
2023-03-31T22:03:45.953Z,97841.81
2023-03-31T22:06:13.007Z,97849.59
2023-03-31T22:08:40.013Z,97847.03
2023-03-31T22:11:09.089Z,97851.31
2023-03-31T22:13:36.659Z,97844.44
2023-03-31T22:16:04.147Z,97845.34
2023-03-31T22:18:31.397Z,97841.53
2023-03-31T22:20:58.506Z,97839.94
2023-03-31T22:23:26.069Z,97848.53
2023-03-31T22:25:52.616Z,97818.84
2023-03-31T22:28:19.181Z,97840.56
2023-03-31T22:30:45.829Z,97831.22
2023-03-31T22:33:12.846Z,97850.13
2023-03-31T22:35:39.421Z,97848.53
2023-03-31T22:38:06.662Z,97850.13
2023-03-31T22:40:35.029Z,97860.91
2023-03-31T22:43:01.825Z,97843.13
2023-03-31T22:45:28.448Z,97849.31
2023-03-31T22:47:55.148Z,97851.69
2023-03-31T22:50:21.856Z,97858.69
2023-03-31T22:52:48.444Z,97852.00
2023-03-31T22:55:15.047Z,97856.44
2023-03-31T22:57:41.695Z,97856.75
2023-03-31T23:00:09.268Z,97865.19
2023-03-31T23:02:35.930Z,97869.47
2023-03-31T23:05:02.533Z,97864.06
2023-03-31T23:07:29.877Z,97867.09
2023-03-31T23:09:56.449Z,97865.50
2023-03-31T23:12:26.360Z,97875.53
2023-03-31T23:14:53.046Z,97879.81
2023-03-31T23:17:19.847Z,97883.16
2023-03-31T23:19:47.699Z,97872.25
2023-03-31T23:22:14.922Z,97879.22
2023-03-31T23:24:41.724Z,97877.75
2023-03-31T23:27:08.564Z,97873.47
2023-03-31T23:29:35.666Z,97890.13
2023-03-31T23:32:02.745Z,97875.53
2023-03-31T23:34:29.305Z,97878.56
2023-03-31T23:36:55.862Z,97873.47
2023-03-31T23:39:22.706Z,97857.63
2023-03-31T23:41:49.340Z,97862.69
2023-03-31T23:44:16.518Z,97868.53
2023-03-31T23:46:44.322Z,97873.81
2023-03-31T23:49:11.802Z,97864.34
2023-03-31T23:51:38.457Z,97869.59
2023-03-31T23:54:05.010Z,97866.44
2023-03-31T23:56:31.637Z,97854.72
2023-03-31T23:58:58.303Z,97875.88
